Thomson Dream — 9HA2381 — position and weather

sailwx.info

Track history (hours):
 
Tides and Currents Weather Stations Pressure Air Temp Water Temp Dewpoint Dewpoint Depression Visibility Wind Speed Wind Dir Waves Ship Positions

Thomson Dream

Last reported at 2017-Oct-17 03:12 UTC. Time now 2017-Oct-19 00:19 UTC.
Position N 43°34' E 015°24'.

Length 243 m; draft 7.6 m.

Type: Ship. MMSI: 248480975.

Date/timePositionNaut miles runAvg speedWind from/ knotsBaromVisibWave heightAir tempDewpointWater temp
2017-Oct-17 03:12N 43°34' E 015°24'417.1
2017-Oct-17 02:59N 43°35' E 015°19'1417.1
2017-Oct-17 02:09N 43°39' E 015°01'317.0
2017-Oct-17 01:59N 43°41' E 014°57'817.1
2017-Oct-17 01:30N 43°44' E 014°47'817.1
2017-Oct-17 01:00N 43°48' E 014°36'917.1
2017-Oct-17 00:30N 43°51' E 014°26'917.2
2017-Oct-17 00:00N 43°55' E 014°15'817.0
2017-Oct-16 23:30N 44°01' E 014°07'917.5
2017-Oct-16 23:00N 44°08' E 014°00'917.8
2017-Oct-16 22:30N 44°16' E 013°53'917.4
2017-Oct-16 22:00N 44°23' E 013°46'817.1
2017-Oct-16 21:30N 44°30' E 013°40'817.0
2017-Oct-16 21:00N 44°37' E 013°33'917.2
2017-Oct-16 20:30N 44°44' E 013°26'917.5
2017-Oct-16 20:00N 44°51' E 013°19'917.4
2017-Oct-16 19:30N 44°56' E 013°09'917.3
2017-Oct-16 19:00N 45°03' E 013°02'917.3
2017-Oct-16 18:30N 45°12' E 012°60'816.1
2017-Oct-16 18:00N 45°19' E 012°56'917.5
2017-Oct-16 17:30N 45°20' E 012°43'917.3
2017-Oct-16 17:00N 45°22' E 012°31'713.1
2017-Oct-16 16:30N 45°26' E 012°24'3 5.5
2017-Oct-16 16:00N 45°26' E 012°20'1 2.2
2017-Oct-16 15:30N 45°26' E 012°19'0 0.0
2017-Oct-16 15:00N 45°26' E 012°19'0 0.0
2017-Oct-16 14:00N 45°26' E 012°19'0 0.0
2017-Oct-16 13:30N 45°26' E 012°19'0 0.0
2017-Oct-16 13:00N 45°26' E 012°19'0 0.0
2017-Oct-16 12:30N 45°26' E 012°19'0 0.0
2017-Oct-16 12:00N 45°26' E 012°19'0 0.0
2017-Oct-16 11:29N 45°26' E 012°19'0 0.0
2017-Oct-16 10:59N 45°26' E 012°19'0 0.0
2017-Oct-16 10:28N 45°26' E 012°19'0 0.0
2017-Oct-16 09:58N 45°26' E 012°19'0 0.0
2017-Oct-16 09:30N 45°26' E 012°19'0 0.0
2017-Oct-16 09:00N 45°26' E 012°19'0 0.0
2017-Oct-16 08:30N 45°26' E 012°19'0 0.0
2017-Oct-16 08:00N 45°26' E 012°19'0 0.0
2017-Oct-16 07:30N 45°26' E 012°19'0 0.0
2017-Oct-16 07:00N 45°26' E 012°19'0 0.4
2017-Oct-16 06:30N 45°26' E 012°19'2 4.1
2017-Oct-16 06:00N 45°26' E 012°21'3 6.7
2017-Oct-16 05:30N 45°25' E 012°26'714.1
2017-Oct-16 04:59N 45°21' E 012°35'510.9
2017-Oct-16 04:30N 45°22' E 012°42'4 7.9
2017-Oct-16 04:00N 45°22' E 012°48'0 0.2
2017-Oct-16 03:30N 45°22' E 012°48'0 0.1
2017-Oct-16 03:00N 45°22' E 012°48'0 0.1
2017-Oct-16 02:28N 45°22' E 012°48'0 0.1
2017-Oct-16 02:00N 45°22' E 012°48'0 0.1
2017-Oct-16 01:30N 45°22' E 012°48'0 0.1
2017-Oct-16 01:00N 45°22' E 012°48'0 0.2
2017-Oct-16 00:30N 45°22' E 012°48'0 0.2
2017-Oct-16 00:00N 45°22' E 012°47'0 0.3
2017-Oct-15 23:30N 45°22' E 012°47'0 0.3
2017-Oct-15 23:00N 45°22' E 012°47'0 0.3
2017-Oct-15 22:30N 45°22' E 012°47'0 0.3
2017-Oct-15 22:00N 45°23' E 012°47'0 0.2
2017-Oct-15 21:30N 45°23' E 012°47'1 2.8
2017-Oct-15 21:00N 45°23' E 012°49'510.5
2017-Oct-15 20:30N 45°25' E 012°56'510.7
2017-Oct-15 20:00N 45°27' E 013°03'611.8
2017-Oct-15 19:30N 45°30' E 013°10'611.6
2017-Oct-15 19:00N 45°33' E 013°17'611.6
2017-Oct-15 18:30N 45°35' E 013°25'611.7
2017-Oct-15 18:00N 45°38' E 013°33'510.4
2017-Oct-15 17:30N 45°36' E 013°39'4 7.9
2017-Oct-15 17:00N 45°33' E 013°44'0 0.0
2017-Oct-15 16:29N 45°33' E 013°44'0 0.0
2017-Oct-15 15:46N 45°33' E 013°44'0 0.0
2017-Oct-15 15:28N 45°33' E 013°44'0 0.0
2017-Oct-15 15:00N 45°33' E 013°44'0 0.0
2017-Oct-15 13:44N 45°33' E 013°44'0 0.0
2017-Oct-15 13:31N 45°33' E 013°44'0 0.0
2017-Oct-15 13:00N 45°33' E 013°44'0 0.0
2017-Oct-15 12:30N 45°33' E 013°44'0 0.0
2017-Oct-15 12:00N 45°33' E 013°44'0 0.0
2017-Oct-15 11:27N 45°33' E 013°44'0 0.0
2017-Oct-15 10:54N 45°33' E 013°44'0 0.0
2017-Oct-15 10:26N 45°33' E 013°44'0 0.0
2017-Oct-15 09:52N 45°33' E 013°44'0 0.0
2017-Oct-15 09:28N 45°33' E 013°44'0 0.0
2017-Oct-15 08:58N 45°33' E 013°44'0 0.0
2017-Oct-15 08:24N 45°33' E 013°44'0 0.0
2017-Oct-15 07:06N 45°33' E 013°44'0 0.0
2017-Oct-15 06:51N 45°33' E 013°44'0 0.0
2017-Oct-15 06:26N 45°33' E 013°44'0 0.0
2017-Oct-15 05:57N 45°33' E 013°44'0 1.0
2017-Oct-15 05:30N 45°33' E 013°43'1 2.5
2017-Oct-15 05:00N 45°34' E 013°42'713.6
2017-Oct-15 04:30N 45°34' E 013°32'815.4
2017-Oct-15 04:00N 45°30' E 013°23'815.6
2017-Oct-15 03:30N 45°25' E 013°15'815.1
2017-Oct-15 03:00N 45°18' E 013°13'612.2
2017-Oct-15 02:30N 45°11' E 013°15'611.5
2017-Oct-15 02:00N 45°06' E 013°18'611.4
2017-Oct-15 01:30N 45°01' E 013°22'611.2
2017-Oct-15 01:01N 44°56' E 013°25'611.4
2017-Oct-15 00:30N 44°52' E 013°30'611.3
2017-Oct-15 00:00N 44°46' E 013°34'611.3
2017-Oct-14 23:30N 44°41' E 013°37'714.4
2017-Oct-14 23:00N 44°35' E 013°42'816.3
2017-Oct-14 22:31N 44°28' E 013°48'816.2
2017-Oct-14 22:00N 44°21' E 013°54'816.8
2017-Oct-14 21:31N 44°14' E 014°01'816.0
2017-Oct-14 21:01N 44°08' E 014°07'815.8
2017-Oct-14 20:30N 44°01' E 014°13'816.0
2017-Oct-14 20:00N 43°55' E 014°20'816.1
2017-Oct-14 19:30N 43°48' E 014°26'816.2
2017-Oct-14 18:59N 43°41' E 014°33'816.0
2017-Oct-14 18:29N 43°34' E 014°39'29215.2
2017-Oct-13 23:18N 40°10' E 019°20'3717.2
2017-Oct-13 21:08N 39°48' E 019°59'217 4.2
2017-Oct-11 17:40N 37°38' E 023°43'318.5
2017-Oct-11 17:31N 37°41' E 023°41'918.0
2017-Oct-11 17:00N 37°49' E 023°37'143 3.9
2017-Oct-10 04:34N 35°30' E 024°14'212.7
2017-Oct-10 04:23N 35°31' E 024°17'614.8
2017-Oct-10 04:00N 35°33' E 024°23'  
Track history (hours):
 
Tides and Currents Weather Stations Pressure Air Temp Water Temp Dewpoint Dewpoint Depression Visibility Wind Speed Wind Dir Waves Ship Positions

Thomson Dream

Last reported at 2017-Oct-17 03:12 UTC. Time now 2017-Oct-19 00:19 UTC.
Position N 43°34' E 015°24'.

Length 243 m; draft 7.6 m.

Type: Ship. MMSI: 248480975.

Date/timePositionNaut miles runAvg speedWind from/ knotsBaromVisibWave heightAir tempDewpointWater temp
2017-Oct-17 03:12N 43°34' E 015°24'417.1
2017-Oct-17 02:59N 43°35' E 015°19'1417.1
2017-Oct-17 02:09N 43°39' E 015°01'317.0
2017-Oct-17 01:59N 43°41' E 014°57'817.1
2017-Oct-17 01:30N 43°44' E 014°47'817.1
2017-Oct-17 01:00N 43°48' E 014°36'917.1
2017-Oct-17 00:30N 43°51' E 014°26'917.2
2017-Oct-17 00:00N 43°55' E 014°15'817.0
2017-Oct-16 23:30N 44°01' E 014°07'917.5
2017-Oct-16 23:00N 44°08' E 014°00'917.8
2017-Oct-16 22:30N 44°16' E 013°53'917.4
2017-Oct-16 22:00N 44°23' E 013°46'817.1
2017-Oct-16 21:30N 44°30' E 013°40'817.0
2017-Oct-16 21:00N 44°37' E 013°33'917.2
2017-Oct-16 20:30N 44°44' E 013°26'917.5
2017-Oct-16 20:00N 44°51' E 013°19'917.4
2017-Oct-16 19:30N 44°56' E 013°09'917.3
2017-Oct-16 19:00N 45°03' E 013°02'917.3
2017-Oct-16 18:30N 45°12' E 012°60'816.1
2017-Oct-16 18:00N 45°19' E 012°56'917.5
2017-Oct-16 17:30N 45°20' E 012°43'917.3
2017-Oct-16 17:00N 45°22' E 012°31'713.1
2017-Oct-16 16:30N 45°26' E 012°24'3 5.5
2017-Oct-16 16:00N 45°26' E 012°20'1 2.2
2017-Oct-16 15:30N 45°26' E 012°19'0 0.0
2017-Oct-16 15:00N 45°26' E 012°19'0 0.0
2017-Oct-16 14:00N 45°26' E 012°19'0 0.0
2017-Oct-16 13:30N 45°26' E 012°19'0 0.0
2017-Oct-16 13:00N 45°26' E 012°19'0 0.0
2017-Oct-16 12:30N 45°26' E 012°19'0 0.0
2017-Oct-16 12:00N 45°26' E 012°19'0 0.0
2017-Oct-16 11:29N 45°26' E 012°19'0 0.0
2017-Oct-16 10:59N 45°26' E 012°19'0 0.0
2017-Oct-16 10:28N 45°26' E 012°19'0 0.0
2017-Oct-16 09:58N 45°26' E 012°19'0 0.0
2017-Oct-16 09:30N 45°26' E 012°19'0 0.0
2017-Oct-16 09:00N 45°26' E 012°19'0 0.0
2017-Oct-16 08:30N 45°26' E 012°19'0 0.0
2017-Oct-16 08:00N 45°26' E 012°19'0 0.0
2017-Oct-16 07:30N 45°26' E 012°19'0 0.0
2017-Oct-16 07:00N 45°26' E 012°19'0 0.4
2017-Oct-16 06:30N 45°26' E 012°19'2 4.1
2017-Oct-16 06:00N 45°26' E 012°21'3 6.7
2017-Oct-16 05:30N 45°25' E 012°26'714.1
2017-Oct-16 04:59N 45°21' E 012°35'510.9
2017-Oct-16 04:30N 45°22' E 012°42'4 7.9
2017-Oct-16 04:00N 45°22' E 012°48'0 0.2
2017-Oct-16 03:30N 45°22' E 012°48'0 0.1
2017-Oct-16 03:00N 45°22' E 012°48'0 0.1
2017-Oct-16 02:28N 45°22' E 012°48'0 0.1
2017-Oct-16 02:00N 45°22' E 012°48'0 0.1
2017-Oct-16 01:30N 45°22' E 012°48'0 0.1
2017-Oct-16 01:00N 45°22' E 012°48'0 0.2
2017-Oct-16 00:30N 45°22' E 012°48'0 0.2
2017-Oct-16 00:00N 45°22' E 012°47'0 0.3
2017-Oct-15 23:30N 45°22' E 012°47'0 0.3
2017-Oct-15 23:00N 45°22' E 012°47'0 0.3
2017-Oct-15 22:30N 45°22' E 012°47'0 0.3
2017-Oct-15 22:00N 45°23' E 012°47'0 0.2
2017-Oct-15 21:30N 45°23' E 012°47'1 2.8
2017-Oct-15 21:00N 45°23' E 012°49'510.5
2017-Oct-15 20:30N 45°25' E 012°56'510.7
2017-Oct-15 20:00N 45°27' E 013°03'611.8
2017-Oct-15 19:30N 45°30' E 013°10'611.6
2017-Oct-15 19:00N 45°33' E 013°17'611.6
2017-Oct-15 18:30N 45°35' E 013°25'611.7
2017-Oct-15 18:00N 45°38' E 013°33'510.4
2017-Oct-15 17:30N 45°36' E 013°39'4 7.9
2017-Oct-15 17:00N 45°33' E 013°44'0 0.0
2017-Oct-15 16:29N 45°33' E 013°44'0 0.0
2017-Oct-15 15:46N 45°33' E 013°44'0 0.0
2017-Oct-15 15:28N 45°33' E 013°44'0 0.0
2017-Oct-15 15:00N 45°33' E 013°44'0 0.0
2017-Oct-15 13:44N 45°33' E 013°44'0 0.0
2017-Oct-15 13:31N 45°33' E 013°44'0 0.0
2017-Oct-15 13:00N 45°33' E 013°44'0 0.0
2017-Oct-15 12:30N 45°33' E 013°44'0 0.0
2017-Oct-15 12:00N 45°33' E 013°44'0 0.0
2017-Oct-15 11:27N 45°33' E 013°44'0 0.0
2017-Oct-15 10:54N 45°33' E 013°44'0 0.0
2017-Oct-15 10:26N 45°33' E 013°44'0 0.0
2017-Oct-15 09:52N 45°33' E 013°44'0 0.0
2017-Oct-15 09:28N 45°33' E 013°44'0 0.0
2017-Oct-15 08:58N 45°33' E 013°44'0 0.0
2017-Oct-15 08:24N 45°33' E 013°44'0 0.0
2017-Oct-15 07:06N 45°33' E 013°44'0 0.0
2017-Oct-15 06:51N 45°33' E 013°44'0 0.0
2017-Oct-15 06:26N 45°33' E 013°44'0 0.0
2017-Oct-15 05:57N 45°33' E 013°44'0 1.0
2017-Oct-15 05:30N 45°33' E 013°43'1 2.5
2017-Oct-15 05:00N 45°34' E 013°42'713.6
2017-Oct-15 04:30N 45°34' E 013°32'815.4
2017-Oct-15 04:00N 45°30' E 013°23'815.6
2017-Oct-15 03:30N 45°25' E 013°15'815.1
2017-Oct-15 03:00N 45°18' E 013°13'612.2
2017-Oct-15 02:30N 45°11' E 013°15'611.5
2017-Oct-15 02:00N 45°06' E 013°18'611.4
2017-Oct-15 01:30N 45°01' E 013°22'611.2
2017-Oct-15 01:01N 44°56' E 013°25'611.4
2017-Oct-15 00:30N 44°52' E 013°30'611.3
2017-Oct-15 00:00N 44°46' E 013°34'611.3
2017-Oct-14 23:30N 44°41' E 013°37'714.4
2017-Oct-14 23:00N 44°35' E 013°42'816.3
2017-Oct-14 22:31N 44°28' E 013°48'816.2
2017-Oct-14 22:00N 44°21' E 013°54'816.8
2017-Oct-14 21:31N 44°14' E 014°01'816.0
2017-Oct-14 21:01N 44°08' E 014°07'815.8
2017-Oct-14 20:30N 44°01' E 014°13'816.0
2017-Oct-14 20:00N 43°55' E 014°20'816.1
2017-Oct-14 19:30N 43°48' E 014°26'816.2
2017-Oct-14 18:59N 43°41' E 014°33'816.0
2017-Oct-14 18:29N 43°34' E 014°39'29215.2
2017-Oct-13 23:18N 40°10' E 019°20'3717.2
2017-Oct-13 21:08N 39°48' E 019°59'217 4.2
2017-Oct-11 17:40N 37°38' E 023°43'318.5
2017-Oct-11 17:31N 37°41' E 023°41'918.0
2017-Oct-11 17:00N 37°49' E 023°37'143 3.9
2017-Oct-10 04:34N 35°30' E 024°14'212.7
2017-Oct-10 04:23N 35°31' E 024°17'614.8
2017-Oct-10 04:00N 35°33' E 024°23'  

Dump ship's entire track history